Time;durP1;ratioP1;P1;durP2;ratioP2;P2;SDS_P1;SDS_P2;PMS_P1;PMS_P2;Temp;Humidity;BMP_temperature;BMP_pressure;BME280_temperature;BME280_humidity;BME280_pressure;Samples;Min_cycle;Max_cycle;Signal;HPM_P1;HPM_P2
2022/01/14 00:00:25;;;;;;;;;;;;;;;18.20;45.98;101496.53;2100334;28;19916;-67
2022/01/14 00:01:25;;;;;;;;;;;;;;;18.20;45.93;101491.06;2102838;28;19927;-67
2022/01/14 00:02:26;;;;;;;;;;;;;;;18.20;46.03;101493.78;2098750;28;20095;-67
2022/01/14 00:03:26;;;;;;;;;;;;;;;18.19;45.98;101497.53;2102418;28;20454;-65
2022/01/14 00:04:26;;;;;;;;;;;;;;;18.20;45.86;101485.59;2093920;28;19927;-65
2022/01/14 00:05:27;;;;;;;;;;;;;;;18.21;46.05;101487.38;2091769;28;20030;-66
2022/01/14 00:06:27;;;;;;;;;;;;;;;18.25;46.03;101490.75;2095293;28;19938;-66
2022/01/14 00:07:27;;;;;;;;;;;;;;;18.25;45.85;101488.00;2093507;28;20803;-66
2022/01/14 00:08:28;;;;;;;;;;;;;;;18.25;45.83;101483.44;2094332;28;20655;-67
2022/01/14 00:09:30;;;;;;;;;;;;;;;18.23;45.88;101479.94;2093846;28;19920;-67
2022/01/14 00:10:32;;;;;;;;;;;;;;;18.22;45.90;101486.38;2092903;28;20002;-67
2022/01/14 00:11:36;;;;;;;;;;;;;;;18.23;46.01;101485.41;2095457;28;20019;-67
2022/01/14 00:12:40;;;;;;;;;;;;;;;18.22;46.10;101478.19;2092162;28;19924;-67
2022/01/14 00:14:57;;;;;;;;;;;;;;;18.20;46.00;101474.69;2092257;28;20382;-67
2022/01/14 00:15:57;;;;;;;;;;;;;;;18.19;46.09;101468.38;2089424;28;19962;-67
2022/01/14 00:16:58;;;;;;;;;;;;;;;18.18;46.01;101465.75;2093013;28;20298;-66
2022/01/14 00:17:58;;;;;;;;;;;;;;;18.18;45.92;101473.94;2091373;28;19925;-67
2022/01/14 00:18:59;;;;;;;;;;;;;;;18.16;46.09;101468.59;2093777;28;20019;-66
2022/01/14 00:19:59;;;;;;;;;;;;;;;18.16;45.98;101462.28;2090681;28;20361;-66
2022/01/14 00:21:01;;;;;;;;;;;;;;;18.15;46.13;101464.13;2088354;28;19920;-67
2022/01/14 00:22:07;;;;;;;;;;;;;;;18.14;45.90;101462.38;2091661;28;19916;-67
2022/01/14 00:23:08;;;;;;;;;;;;;;;18.16;45.97;101465.00;2091577;28;20347;-66
2022/01/14 00:24:13;;;;;;;;;;;;;;;18.16;46.12;101467.72;2091526;28;21166;-68
2022/01/14 00:31:58;;;;;;;;;;;;;;;18.24;46.00;101459.84;2089399;28;20427;-66
2022/01/14 00:33:16;;;;;;;;;;;;;;;18.24;45.75;101465.31;2088495;28;19966;-66
2022/01/14 00:34:17;;;;;;;;;;;;;;;18.25;45.80;101458.88;2092897;28;20504;-66
2022/01/14 00:35:17;;;;;;;;;;;;;;;18.25;45.81;101456.16;2090928;28;20416;-66
2022/01/14 00:36:17;;;;;;;;;;;;;;;18.28;45.63;101455.91;2093311;28;19939;-67
2022/01/14 00:37:17;;;;;;;;;;;;;;;18.29;45.62;101452.19;2087635;28;19959;-67
2022/01/14 00:38:18;;;;;;;;;;;;;;;18.31;45.61;101455.69;2082876;28;19982;-67
2022/01/14 00:39:18;;;;;;;;;;;;;;;18.33;45.63;101451.00;2083801;28;20685;-67
2022/01/14 00:40:18;;;;;;;;;;;;;;;18.33;45.65;101453.72;2085303;28;19975;-67
2022/01/14 00:41:19;;;;;;;;;;;;;;;18.36;45.40;101448.03;2084282;28;19916;-66
2022/01/14 00:42:19;;;;;;;;;;;;;;;18.37;45.55;101447.06;2085635;28;19916;-67
2022/01/14 00:43:19;;;;;;;;;;;;;;;18.39;45.46;101456.00;2083913;28;20275;-67
2022/01/14 00:44:20;;;;;;;;;;;;;;;18.41;45.34;101454.03;2085309;28;20298;-67
2022/01/14 00:45:20;;;;;;;;;;;;;;;18.43;45.24;101443.00;2085161;28;19909;-67
2022/01/14 00:46:21;;;;;;;;;;;;;;;18.46;45.20;101441.91;2085079;28;19916;-67
2022/01/14 00:47:21;;;;;;;;;;;;;;;18.46;45.32;101447.38;2082049;28;19924;-67
2022/01/14 00:48:21;;;;;;;;;;;;;;;18.48;45.21;101445.41;2084272;28;19919;-67
2022/01/14 00:49:22;;;;;;;;;;;;;;;18.51;45.19;101445.16;2085115;28;20268;-67
2022/01/14 00:50:22;;;;;;;;;;;;;;;18.51;45.05;101440.56;2076001;28;19909;-67
2022/01/14 00:51:23;;;;;;;;;;;;;;;18.52;45.16;101442.34;2076365;28;19915;-67
2022/01/14 00:52:23;;;;;;;;;;;;;;;18.53;45.12;101443.19;2084880;28;19920;-67
2022/01/14 00:53:23;;;;;;;;;;;;;;;18.56;45.10;101442.97;2083504;28;19904;-66
2022/01/14 00:54:26;;;;;;;;;;;;;;;18.56;45.06;101435.63;2084862;28;19905;-67
2022/01/14 00:55:29;;;;;;;;;;;;;;;18.59;44.97;101446.34;2084846;28;19909;-67
2022/01/14 01:00:10;;;;;;;;;;;;;;;18.66;44.66;101441.28;2080479;28;20022;-66
2022/01/14 01:01:11;;;;;;;;;;;;;;;18.68;44.74;101439.31;2085283;28;19916;-66
2022/01/14 01:02:11;;;;;;;;;;;;;;;18.69;44.64;101442.91;2083971;28;20015;-66
2022/01/14 01:03:12;;;;;;;;;;;;;;;18.71;44.49;101447.28;2082702;28;20011;-66
2022/01/14 01:04:13;;;;;;;;;;;;;;;18.73;44.69;101437.09;2081680;28;19978;-66
2022/01/14 01:05:14;;;;;;;;;;;;;;;18.74;44.56;101435.25;2082584;28;19974;-66
2022/01/14 01:06:14;;;;;;;;;;;;;;;18.74;44.52;101438.88;2084010;28;19920;-66
2022/01/14 01:07:15;;;;;;;;;;;;;;;18.76;44.62;101441.50;2083159;28;19920;-66
2022/01/14 01:08:21;;;;;;;;;;;;;;;18.77;44.62;101435.06;2083361;28;19919;-66
2022/01/14 01:09:24;;;;;;;;;;;;;;;18.77;44.44;101433.19;2082915;28;19920;-66
2022/01/14 01:10:24;;;;;;;;;;;;;;;18.77;44.61;101430.47;2074088;28;19924;-66
2022/01/14 01:11:29;;;;;;;;;;;;;;;18.80;44.36;101426.63;2073835;28;20011;-66
2022/01/14 01:12:47;;;;;;;;;;;;;;;18.81;44.40;101437.47;2085232;28;20413;-66
2022/01/14 01:13:51;;;;;;;;;;;;;;;18.82;44.45;101433.72;2084787;28;19913;-66
2022/01/14 01:15:03;;;;;;;;;;;;;;;18.83;44.36;101431.84;2083022;28;20314;-66
2022/01/14 01:16:04;;;;;;;;;;;;;;;18.84;44.40;101437.22;2083062;28;19921;-66
2022/01/14 01:17:04;;;;;;;;;;;;;;;18.85;44.38;101436.22;2085042;28;19963;-66
2022/01/14 01:18:05;;;;;;;;;;;;;;;18.88;44.24;101440.56;2084083;28;19908;-66
2022/01/14 01:19:05;;;;;;;;;;;;;;;18.87;44.30;101440.72;2084177;28;19931;-66
2022/01/14 01:20:11;;;;;;;;;;;;;;;18.88;44.34;101439.72;2085248;28;20005;-67
2022/01/14 01:21:11;;;;;;;;;;;;;;;18.88;44.17;101442.44;2073508;28;20303;-67
2022/01/14 01:22:12;;;;;;;;;;;;;;;18.91;44.17;101434.00;2085513;28;19908;-66
2022/01/14 01:23:12;;;;;;;;;;;;;;;18.90;44.33;101437.75;2085519;28;19920;-66
2022/01/14 01:24:14;;;;;;;;;;;;;;;18.91;44.11;101425.81;2086489;28;19913;-66
2022/01/14 01:25:18;;;;;;;;;;;;;;;18.92;44.15;101433.03;2085576;28;20007;-66
2022/01/14 01:26:41;;;;;;;;;;;;;;;18.92;44.09;101435.78;2074988;28;20490;-66
2022/01/14 01:27:42;;;;;;;;;;;;;;;18.94;44.02;101431.06;2079483;28;19932;-66
2022/01/14 01:31:35;;;;;;;;;;;;;;;18.96;44.05;101426.31;2048036;28;19922;-66
2022/01/14 01:32:36;;;;;;;;;;;;;;;18.98;44.05;101424.34;2082786;28;20013;-67
2022/01/14 01:33:36;;;;;;;;;;;;;;;18.98;44.10;101438.03;2084580;28;19921;-67
2022/01/14 01:34:37;;;;;;;;;;;;;;;18.98;43.96;101427.09;2086150;28;20011;-66
2022/01/14 01:35:37;;;;;;;;;;;;;;;18.98;44.06;101438.03;2084583;28;19917;-66
2022/01/14 01:36:38;;;;;;;;;;;;;;;18.98;43.94;101438.88;2085756;28;19920;-67
2022/01/14 01:37:38;;;;;;;;;;;;;;;18.99;43.94;101439.78;2085773;28;20588;-66
2022/01/14 01:38:39;;;;;;;;;;;;;;;18.99;43.96;101435.19;2089454;28;19962;-67
2022/01/14 01:39:39;;;;;;;;;;;;;;;19.01;44.01;101432.31;2085615;28;20560;-66
2022/01/14 01:40:39;;;;;;;;;;;;;;;19.00;43.84;101433.31;2086135;28;20779;-66
2022/01/14 01:41:42;;;;;;;;;;;;;;;19.00;43.93;101436.03;2091883;28;19920;-67
2022/01/14 01:42:44;;;;;;;;;;;;;;;19.01;43.87;101432.31;2090218;28;19920;-67
2022/01/14 01:43:50;;;;;;;;;;;;;;;19.00;43.94;101425.13;2093246;28;19920;-67
2022/01/14 01:44:50;;;;;;;;;;;;;;;19.01;43.88;101432.31;2088407;28;19920;-67
2022/01/14 01:45:51;;;;;;;;;;;;;;;19.01;43.93;101432.31;2090942;28;20394;-67
2022/01/14 01:46:52;;;;;;;;;;;;;;;19.01;43.90;101432.31;2093168;28;19946;-67
2022/01/14 01:47:54;;;;;;;;;;;;;;;19.00;43.97;101433.31;2085461;28;19921;-67
2022/01/14 01:48:54;;;;;;;;;;;;;;;19.00;43.92;101436.91;2085537;28;21444;-67
2022/01/14 01:49:54;;;;;;;;;;;;;;;19.01;44.03;101433.22;2092552;28;21608;-67
2022/01/14 01:50:57;;;;;;;;;;;;;;;19.01;43.90;101443.25;2094318;28;19913;-68
2022/01/14 01:51:58;;;;;;;;;;;;;;;19.00;43.88;101431.44;2095154;28;19919;-67
2022/01/14 01:52:58;;;;;;;;;;;;;;;19.01;44.05;101435.03;2093690;28;20413;-68
2022/01/14 01:53:59;;;;;;;;;;;;;;;19.01;43.92;101438.66;2092484;28;20413;-65
2022/01/14 01:54:59;;;;;;;;;;;;;;;19.01;43.90;101443.25;2094131;28;20535;-66
2022/01/14 01:56:00;;;;;;;;;;;;;;;19.01;43.91;101443.25;2092124;28;20235;-66
2022/01/14 01:57:00;;;;;;;;;;;;;;;19.01;43.91;101437.78;2093710;28;19911;-65
2022/01/14 01:58:01;;;;;;;;;;;;;;;19.02;44.07;101439.53;2096180;28;20397;-66
2022/01/14 01:59:01;;;;;;;;;;;;;;;19.01;44.03;101440.50;2094751;28;19920;-66
2022/01/14 02:00:06;;;;;;;;;;;;;;;19.01;43.88;101448.72;2094795;28;19920;-66
2022/01/14 02:01:06;;;;;;;;;;;;;;;19.01;43.90;101448.72;2092639;28;20292;-66
2022/01/14 02:02:07;;;;;;;;;;;;;;;19.00;43.89;101441.50;2092562;28;19963;-66
2022/01/14 02:03:07;;;;;;;;;;;;;;;19.00;43.96;101441.50;2095169;28;19920;-66
2022/01/14 02:04:08;;;;;;;;;;;;;;;19.00;43.88;101446.97;2094095;28;19916;-66
2022/01/14 02:05:08;;;;;;;;;;;;;;;18.99;43.97;101443.38;2095380;28;19938;-67
2022/01/14 02:06:08;;;;;;;;;;;;;;;18.99;43.91;101443.38;2093157;28;19916;-65
2022/01/14 02:07:09;;;;;;;;;;;;;;;18.99;43.96;101442.50;2094093;28;20679;-67
2022/01/14 02:08:09;;;;;;;;;;;;;;;18.99;44.10;101445.25;2085112;28;19924;-66
2022/01/14 02:09:12;;;;;;;;;;;;;;;18.98;43.98;101440.75;2087918;28;20272;-66
2022/01/14 02:10:12;;;;;;;;;;;;;;;18.98;43.93;101443.47;2095626;28;19920;-66
2022/01/14 02:11:13;;;;;;;;;;;;;;;18.98;43.98;101438.88;2092540;28;20344;-66
2022/01/14 02:12:13;;;;;;;;;;;;;;;18.98;43.93;101438.88;2095302;28;19951;-66
2022/01/14 02:13:15;;;;;;;;;;;;;;;18.99;44.00;101434.31;2092020;28;19942;-66
2022/01/14 02:14:53;;;;;;;;;;;;;;;18.95;43.94;101443.72;2093124;28;19923;-67
2022/01/14 02:16:11;;;;;;;;;;;;;;;18.97;43.95;101439.88;2094866;28;19919;-66
2022/01/14 02:19:23;;;;;;;;;;;;;;;18.97;43.96;101439.03;2096070;28;19924;-65
2022/01/14 02:23:07;;;;;;;;;;;;;;;18.95;44.17;101435.53;2095561;28;19916;-66
2022/01/14 02:24:33;;;;;;;;;;;;;;;18.94;44.15;101431.94;2093559;28;20058;-66
2022/01/14 02:25:33;;;;;;;;;;;;;;;18.95;44.00;101427.31;2095117;28;19920;-66
2022/01/14 02:26:44;;;;;;;;;;;;;;;18.93;44.01;101429.31;2096904;28;19965;-66
2022/01/14 02:27:45;;;;;;;;;;;;;;;18.93;43.99;101432.91;2096799;28;20068;-66
2022/01/14 02:28:51;;;;;;;;;;;;;;;18.94;44.10;101431.06;2095147;28;19923;-65
2022/01/14 02:29:51;;;;;;;;;;;;;;;18.95;44.02;101432.78;2095195;28;20287;-66
2022/01/14 02:30:51;;;;;;;;;;;;;;;18.92;44.08;101427.56;2096183;28;19946;-66
2022/01/14 02:31:52;;;;;;;;;;;;;;;18.93;44.05;101435.63;2093463;28;19920;-66
2022/01/14 02:32:52;;;;;;;;;;;;;;;18.92;44.18;101422.09;2088931;28;19913;-66
2022/01/14 02:33:53;;;;;;;;;;;;;;;18.93;44.02;101429.31;2093789;28;19912;-66
2022/01/14 02:34:53;;;;;;;;;;;;;;;18.92;44.05;101433.03;2098165;28;19908;-66
2022/01/14 02:35:55;;;;;;;;;;;;;;;18.93;44.13;101434.75;2094503;28;19924;-66
2022/01/14 02:36:56;;;;;;;;;;;;;;;18.92;44.03;101430.31;2095852;28;19930;-66
2022/01/14 02:37:57;;;;;;;;;;;;;;;18.93;44.10;101432.03;2094444;28;19956;-66
2022/01/14 02:38:57;;;;;;;;;;;;;;;18.93;44.02;101435.63;2095684;28;19935;-66
2022/01/14 02:39:57;;;;;;;;;;;;;;;18.93;44.02;101440.22;2096322;28;19922;-66
2022/01/14 02:40:58;;;;;;;;;;;;;;;18.92;44.18;101433.03;2097452;28;19955;-66
2022/01/14 02:41:58;;;;;;;;;;;;;;;18.92;44.16;101433.03;2087764;28;20473;-66
2022/01/14 02:43:00;;;;;;;;;;;;;;;18.91;44.06;101439.47;2088662;28;19928;-66
2022/01/14 02:44:05;;;;;;;;;;;;;;;18.91;44.01;101436.72;2096084;28;19920;-66
2022/01/14 02:45:07;;;;;;;;;;;;;;;18.90;44.06;101429.53;2096448;28;20498;-66
2022/01/14 02:46:08;;;;;;;;;;;;;;;18.89;44.18;101428.69;2094990;28;19920;-66
2022/01/14 02:47:09;;;;;;;;;;;;;;;18.88;44.12;101432.38;2096426;28;19963;-66
2022/01/14 02:48:09;;;;;;;;;;;;;;;18.88;44.10;101426.91;2095072;28;19912;-66
2022/01/14 02:49:09;;;;;;;;;;;;;;;18.88;44.07;101434.25;2096304;28;19939;-66
2022/01/14 02:50:15;;;;;;;;;;;;;;;18.86;44.12;101434.34;2097983;28;19915;-66
2022/01/14 02:51:17;;;;;;;;;;;;;;;18.88;44.12;101434.25;2095990;28;19913;-66
2022/01/14 02:52:27;;;;;;;;;;;;;;;18.89;44.10;101433.25;2098455;28;20314;-66
2022/01/14 02:54:41;;;;;;;;;;;;;;;18.88;44.11;101436.97;2096523;28;20378;-66
2022/01/14 02:55:43;;;;;;;;;;;;;;;18.87;44.27;101436.09;2097214;28;20363;-66
2022/01/14 02:56:45;;;;;;;;;;;;;;;18.87;44.09;101429.78;2099230;28;19930;-65
2022/01/14 02:57:47;;;;;;;;;;;;;;;18.86;44.23;101434.34;2098399;28;20663;-66
2022/01/14 02:58:49;;;;;;;;;;;;;;;18.85;44.15;101428.03;2099708;28;19920;-66
2022/01/14 02:59:50;;;;;;;;;;;;;;;18.84;44.11;101431.75;2098417;28;20819;-66
2022/01/14 03:00:51;;;;;;;;;;;;;;;18.84;44.19;101431.75;2099422;28;20016;-65
2022/01/14 03:01:52;;;;;;;;;;;;;;;18.84;44.19;101431.75;2090819;28;20010;-66
2022/01/14 03:02:52;;;;;;;;;;;;;;;18.82;44.23;101422.78;2091910;28;19916;-67
2022/01/14 03:03:54;;;;;;;;;;;;;;;18.82;44.19;101422.78;2097157;28;19923;-66
2022/01/14 03:04:54;;;;;;;;;;;;;;;18.82;44.23;101428.25;2090726;28;19921;-66
2022/01/14 03:05:55;;;;;;;;;;;;;;;18.81;44.38;101421.06;2088502;28;19916;-66
2022/01/14 03:06:55;;;;;;;;;;;;;;;18.80;44.15;101413.84;2098253;28;19920;-66
2022/01/14 03:07:55;;;;;;;;;;;;;;;18.81;44.31;101414.69;2089419;28;19916;-66
2022/01/14 03:08:57;;;;;;;;;;;;;;;18.80;44.35;101424.75;2091268;28;19983;-66
2022/01/14 03:09:57;;;;;;;;;;;;;;;18.79;44.27;101423.03;2097046;28;19970;-67
2022/01/14 03:11:05;;;;;;;;;;;;;;;18.79;44.40;101417.56;2099398;28;19970;-65
2022/01/14 03:12:05;;;;;;;;;;;;;;;18.79;44.24;101428.50;2098975;28;19916;-65
2022/01/14 03:13:06;;;;;;;;;;;;;;;18.79;44.25;101411.22;2100299;28;20061;-65
2022/01/14 03:14:08;;;;;;;;;;;;;;;18.79;44.24;101416.69;2096753;28;19932;-65
2022/01/14 03:15:09;;;;;;;;;;;;;;;18.77;44.32;101419.53;2098328;28;19926;-66
2022/01/14 03:16:09;;;;;;;;;;;;;;;18.76;44.40;101417.78;2099898;28;19927;-66
2022/01/14 03:17:10;;;;;;;;;;;;;;;18.76;44.24;101417.78;2092845;28;19923;-66
2022/01/14 03:18:10;;;;;;;;;;;;;;;18.76;44.38;101415.03;2092784;28;19948;-66
2022/01/14 03:19:17;;;;;;;;;;;;;;;18.77;44.35;101418.69;2098341;28;19963;-66
2022/01/14 03:20:45;;;;;;;;;;;;;;;18.76;44.51;101417.78;2100698;28;20531;-66
2022/01/14 03:21:42;;;;;;;;;;;;;;;18.75;44.29;101418.75;2100794;28;20363;-65
2022/01/14 03:22:52;;;;;;;;;;;;;;;18.73;44.40;101407.06;2099306;28;20348;-66
2022/01/14 03:24:03;;;;;;;;;;;;;;;18.73;44.51;101412.53;2101434;28;19926;-66
2022/01/14 03:26:23;;;;;;;;;;;;;;;18.71;44.40;101409.03;2094230;28;19920;-65
2022/01/14 03:27:24;;;;;;;;;;;;;;;18.71;44.36;101409.03;2098992;28;19935;-66
2022/01/14 03:28:24;;;;;;;;;;;;;;;18.72;44.40;101404.47;2100524;28;19915;-66
2022/01/14 03:29:25;;;;;;;;;;;;;;;18.71;44.42;101403.56;2102019;28;20040;-66
2022/01/14 03:30:25;;;;;;;;;;;;;;;18.70;44.39;101410.03;2101927;28;19920;-65
2022/01/14 03:31:25;;;;;;;;;;;;;;;18.69;44.47;101411.03;2102031;28;19912;-66
2022/01/14 03:32:26;;;;;;;;;;;;;;;18.69;44.42;101411.03;2090450;28;19920;-66
2022/01/14 03:33:26;;;;;;;;;;;;;;;18.68;44.55;101403.81;2093449;28;19967;-66
2022/01/14 03:34:26;;;;;;;;;;;;;;;18.67;44.52;101402.06;2099795;28;19920;-66
2022/01/14 03:35:27;;;;;;;;;;;;;;;18.70;44.43;101407.31;2101162;28;19973;-66
2022/01/14 03:36:27;;;;;;;;;;;;;;;18.68;44.47;101403.81;2102192;28;19923;-66
2022/01/14 03:37:27;;;;;;;;;;;;;;;18.68;44.42;101400.22;2099349;28;20417;-66
2022/01/14 03:38:28;;;;;;;;;;;;;;;18.67;44.47;101402.06;2103191;28;19977;-66
2022/01/14 03:39:28;;;;;;;;;;;;;;;18.68;44.46;101394.75;2102550;28;19927;-66
2022/01/14 03:40:28;;;;;;;;;;;;;;;18.66;44.38;101400.31;2103906;28;19918;-66
2022/01/14 03:41:29;;;;;;;;;;;;;;;18.66;44.52;101403.03;2101704;28;19932;-67
2022/01/14 03:42:29;;;;;;;;;;;;;;;18.66;44.62;101403.03;2102403;28;19966;-66
2022/01/14 03:43:29;;;;;;;;;;;;;;;18.65;44.62;101395.84;2102535;28;20297;-66
2022/01/14 03:44:30;;;;;;;;;;;;;;;18.64;44.53;101395.00;2100838;28;20683;-66
2022/01/14 03:45:30;;;;;;;;;;;;;;;18.65;44.63;101404.03;2101317;28;19962;-66
2022/01/14 03:46:30;;;;;;;;;;;;;;;18.64;44.60;101396.81;2101764;28;19912;-66
2022/01/14 03:47:31;;;;;;;;;;;;;;;18.64;44.52;101394.09;2102223;28;19981;-66
2022/01/14 03:48:31;;;;;;;;;;;;;;;18.63;44.55;101400.56;2100861;28;20353;-66
2022/01/14 03:49:31;;;;;;;;;;;;;;;18.62;44.51;101396.97;2099294;28;19985;-66
2022/01/14 03:50:32;;;;;;;;;;;;;;;18.62;44.49;101398.81;2092519;28;19912;-66
2022/01/14 03:51:32;;;;;;;;;;;;;;;18.61;44.54;101397.06;2089292;28;20539;-65
2022/01/14 03:52:33;;;;;;;;;;;;;;;18.61;44.70;101397.06;2093317;28;19908;-65
2022/01/14 03:53:33;;;;;;;;;;;;;;;18.60;44.64;101400.78;2090796;28;20401;-66
2022/01/14 03:54:33;;;;;;;;;;;;;;;18.60;44.53;101396.19;2084506;28;19916;-66
2022/01/14 03:55:34;;;;;;;;;;;;;;;18.60;44.58;101398.94;2082705;28;19920;-66
2022/01/14 03:56:34;;;;;;;;;;;;;;;18.59;44.64;101399.94;2090521;28;20414;-66
2022/01/14 03:57:34;;;;;;;;;;;;;;;18.59;44.55;101399.03;2092755;28;19916;-66
2022/01/14 03:58:36;;;;;;;;;;;;;;;18.58;44.58;101398.16;2092022;28;20321;-66
2022/01/14 03:59:37;;;;;;;;;;;;;;;18.59;44.71;101399.03;2091873;28;20636;-66
2022/01/14 04:00:37;;;;;;;;;;;;;;;18.58;44.74;101391.84;2091922;28;19920;-66
2022/01/14 04:01:38;;;;;;;;;;;;;;;18.58;44.56;101392.69;2088756;28;19956;-66
2022/01/14 04:02:38;;;;;;;;;;;;;;;18.58;44.79;101394.56;2091824;28;20526;-66
2022/01/14 04:03:39;;;;;;;;;;;;;;;18.57;44.67;101390.97;2083242;28;20337;-66
2022/01/14 04:04:39;;;;;;;;;;;;;;;18.56;44.72;101394.66;2073084;28;19955;-65
2022/01/14 04:05:39;;;;;;;;;;;;;;;18.56;44.76;101388.34;2083357;28;19927;-66
2022/01/14 04:06:40;;;;;;;;;;;;;;;18.56;44.70;101396.53;2091743;28;19982;-66
2022/01/14 04:07:41;;;;;;;;;;;;;;;18.55;44.72;101389.34;2089811;28;19920;-66
2022/01/14 04:08:41;;;;;;;;;;;;;;;18.55;44.67;101394.81;2095082;28;20046;-66
2022/01/14 04:09:42;;;;;;;;;;;;;;;18.54;44.66;101395.78;2091401;28;19935;-66
2022/01/14 04:10:42;;;;;;;;;;;;;;;18.54;44.78;101393.03;2091838;28;20621;-66
2022/01/14 04:11:44;;;;;;;;;;;;;;;18.53;44.51;101391.31;2092541;28;20001;-68
2022/01/14 04:12:54;;;;;;;;;;;;;;;18.53;44.61;101391.31;2093019;28;20449;-66
2022/01/14 04:13:56;;;;;;;;;;;;;;;18.53;44.78;101383.13;2092520;28;19916;-68
2022/01/14 04:15:57;;;;;;;;;;;;;;;18.52;44.85;101392.28;2080628;28;19919;-66
2022/01/14 04:16:58;;;;;;;;;;;;;;;18.50;44.86;101383.38;2091718;28;20113;-65
2022/01/14 04:17:59;;;;;;;;;;;;;;;18.50;44.70;101386.09;2091943;28;20363;-66
2022/01/14 04:18:59;;;;;;;;;;;;;;;18.49;44.74;101385.19;2083181;28;20836;-65
2022/01/14 04:19:59;;;;;;;;;;;;;;;18.49;44.89;101385.19;2083702;28;19924;-66
2022/01/14 04:21:00;;;;;;;;;;;;;;;18.48;44.86;101379.88;2081927;28;19920;-66
2022/01/14 04:22:00;;;;;;;;;;;;;;;18.49;44.82;101378.88;2092174;28;19916;-66
2022/01/14 04:23:01;;;;;;;;;;;;;;;18.47;44.88;101383.56;2087717;28;19920;-66
2022/01/14 04:24:02;;;;;;;;;;;;;;;18.46;44.85;101385.44;2091109;28;20046;-66
2022/01/14 04:25:02;;;;;;;;;;;;;;;18.45;44.89;101380.97;2094556;28;20365;-65
2022/01/14 04:26:02;;;;;;;;;;;;;;;18.46;44.90;101381.84;2088896;28;19920;-65
2022/01/14 04:27:03;;;;;;;;;;;;;;;18.45;44.75;101380.06;2092215;28;19916;-66
2022/01/14 04:28:04;;;;;;;;;;;;;;;18.44;44.88;101373.75;2089257;28;19916;-65
2022/01/14 04:29:04;;;;;;;;;;;;;;;18.43;44.84;101378.34;2091493;28;19916;-65
2022/01/14 04:30:05;;;;;;;;;;;;;;;18.43;44.82;101380.22;2083705;28;20008;-65
2022/01/14 04:31:07;;;;;;;;;;;;;;;18.42;44.96;101382.06;2090316;28;19928;-66
2022/01/14 04:32:07;;;;;;;;;;;;;;;18.42;44.79;101382.06;2109118;28;19919;-66
2022/01/14 04:33:07;;;;;;;;;;;;;;;18.39;45.04;101376.81;2100144;28;19951;-66
2022/01/14 04:34:08;;;;;;;;;;;;;;;18.40;44.79;101377.72;2103083;28;19912;-66
2022/01/14 04:35:08;;;;;;;;;;;;;;;18.41;44.92;101379.44;2101007;28;19923;-66
2022/01/14 04:36:08;;;;;;;;;;;;;;;18.39;45.02;101374.09;2101114;28;19944;-66
2022/01/14 04:37:09;;;;;;;;;;;;;;;18.39;44.87;101375.94;2103249;28;19951;-66
2022/01/14 04:38:09;;;;;;;;;;;;;;;18.38;44.81;101375.09;2102135;28;19916;-66
2022/01/14 04:39:10;;;;;;;;;;;;;;;18.37;44.88;101373.34;2102551;28;19928;-66
2022/01/14 04:40:12;;;;;;;;;;;;;;;18.38;44.87;101375.09;2104111;28;20322;-66
2022/01/14 04:41:13;;;;;;;;;;;;;;;18.37;45.12;101367.00;2102793;28;19916;-66
2022/01/14 04:42:13;;;;;;;;;;;;;;;18.36;44.94;101371.59;2101308;28;20286;-67
2022/01/14 04:43:16;;;;;;;;;;;;;;;18.36;45.12;101371.59;2101676;28;20409;-66
2022/01/14 04:44:17;;;;;;;;;;;;;;;18.35;44.98;101369.00;2099167;28;19916;-66
2022/01/14 04:47:44;;;;;;;;;;;;;;;18.34;44.89;101365.38;2101769;28;20484;-66
2022/01/14 04:48:45;;;;;;;;;;;;;;;18.34;45.01;101361.78;2100867;28;20374;-66
2022/01/14 04:49:45;;;;;;;;;;;;;;;18.33;44.96;101363.63;2099155;28;20310;-66
2022/01/14 04:50:45;;;;;;;;;;;;;;;18.32;45.15;101364.59;2099525;28;19986;-66
2022/01/14 04:51:46;;;;;;;;;;;;;;;18.31;45.10;101368.34;2100376;28;20350;-65
2022/01/14 04:52:47;;;;;;;;;;;;;;;18.32;45.20;101369.19;2100905;28;19919;-67
2022/01/14 04:53:48;;;;;;;;;;;;;;;18.32;45.14;101369.19;2101060;28;20263;-66
2022/01/14 04:54:48;;;;;;;;;;;;;;;18.30;44.99;101366.59;2101238;28;19984;-66
2022/01/14 04:55:52;;;;;;;;;;;;;;;18.28;45.05;101365.84;2101318;28;19920;-66
2022/01/14 04:56:53;;;;;;;;;;;;;;;18.29;45.01;101364.84;2099153;28;20312;-66
2022/01/14 04:57:54;;;;;;;;;;;;;;;18.27;45.10;101361.34;2092204;28;20296;-66
2022/01/14 04:58:55;;;;;;;;;;;;;;;18.26;45.24;101353.31;2082549;28;20007;-66
2022/01/14 04:59:55;;;;;;;;;;;;;;;18.27;45.13;101360.50;2086587;28;19974;-66
2022/01/14 05:00:56;;;;;;;;;;;;;;;18.27;44.98;101361.34;2099968;28;19989;-66
2022/01/14 05:01:58;;;;;;;;;;;;;;;18.26;45.07;101361.50;2098448;28;19923;-66
2022/01/14 05:02:58;;;;;;;;;;;;;;;18.26;45.03;101365.09;2100393;28;19924;-66
2022/01/14 05:03:59;;;;;;;;;;;;;;;18.26;45.17;101365.09;2102522;28;19916;-66
2022/01/14 05:05:00;;;;;;;;;;;;;;;18.24;45.12;101364.31;2090149;28;20044;-66
2022/01/14 05:06:01;;;;;;;;;;;;;;;18.25;45.19;101362.47;2094921;28;20646;-66
2022/01/14 05:07:03;;;;;;;;;;;;;;;18.24;45.05;101367.03;2098279;28;20448;-66
2022/01/14 05:08:09;;;;;;;;;;;;;;;18.23;45.23;101365.31;2100977;28;19920;-66
2022/01/14 05:09:19;;;;;;;;;;;;;;;18.23;45.05;101365.31;2101467;28;19916;-66
2022/01/14 05:11:41;;;;;;;;;;;;;;;18.21;45.13;101365.41;2101208;28;19947;-66
2022/01/14 05:12:41;;;;;;;;;;;;;;;18.21;45.26;101367.28;2100677;28;19920;-66
2022/01/14 05:13:41;;;;;;;;;;;;;;;18.20;45.36;101365.53;2101372;28;20420;-66
2022/01/14 05:14:42;;;;;;;;;;;;;;;18.20;45.15;101366.41;2101538;28;19920;-66
2022/01/14 05:15:42;;;;;;;;;;;;;;;18.19;45.23;101370.13;2098019;28;19920;-67
2022/01/14 05:16:42;;;;;;;;;;;;;;;18.19;45.25;101366.53;2100507;28;20576;-65
2022/01/14 05:17:43;;;;;;;;;;;;;;;18.19;45.23;101366.53;2099523;28;19960;-65
2022/01/14 05:18:43;;;;;;;;;;;;;;;18.19;45.32;101366.53;2098695;28;19920;-65
2022/01/14 05:19:44;;;;;;;;;;;;;;;18.18;45.30;101359.34;2102512;28;20375;-66
2022/01/14 05:20:44;;;;;;;;;;;;;;;18.18;45.32;101367.53;2101701;28;19962;-67
2022/01/14 05:21:45;;;;;;;;;;;;;;;18.16;45.11;101364.88;2101630;28;19916;-67
2022/01/14 05:22:45;;;;;;;;;;;;;;;18.16;45.31;101364.03;2099546;28;20306;-67
2022/01/14 05:23:46;;;;;;;;;;;;;;;18.16;45.45;101364.03;2100575;28;19997;-67
2022/01/14 05:24:46;;;;;;;;;;;;;;;18.15;45.45;101362.25;2102339;28;19923;-68
2022/01/14 05:25:47;;;;;;;;;;;;;;;18.15;45.28;101367.72;2098816;28;20470;-67
2022/01/14 05:26:47;;;;;;;;;;;;;;;18.15;45.42;101365.00;2100872;28;19947;-66
2022/01/14 05:27:48;;;;;;;;;;;;;;;18.15;45.33;101365.00;2099629;28;19935;-66
2022/01/14 05:28:48;;;;;;;;;;;;;;;18.12;45.38;101368.81;2095493;28;19927;-65
2022/01/14 05:29:48;;;;;;;;;;;;;;;18.13;45.46;101367.00;2079248;28;19921;-66
2022/01/14 05:30:48;;;;;;;;;;;;;;;18.13;45.20;101356.94;2088733;28;19921;-66
2022/01/14 05:31:51;;;;;;;;;;;;;;;18.12;45.42;101351.59;2100737;28;19973;-65
2022/01/14 05:32:52;;;;;;;;;;;;;;;18.11;45.43;101360.75;2101267;28;19926;-66
2022/01/14 05:33:53;;;;;;;;;;;;;;;18.11;45.26;101356.19;2101525;28;19974;-66
2022/01/14 05:34:53;;;;;;;;;;;;;;;18.10;45.38;101359.00;2100625;28;20386;-65
2022/01/14 05:35:53;;;;;;;;;;;;;;;18.09;45.41;101362.72;2102522;28;20366;-66
2022/01/14 05:36:54;;;;;;;;;;;;;;;18.09;45.29;101358.13;2098698;28;20359;-66
2022/01/14 05:37:54;;;;;;;;;;;;;;;18.09;45.20;101351.81;2098834;28;19920;-66
2022/01/14 05:38:55;;;;;;;;;;;;;;;18.09;45.36;101360.00;2101011;28;19920;-66
2022/01/14 05:39:57;;;;;;;;;;;;;;;18.08;45.23;101358.25;2101794;28;19927;-66
2022/01/14 05:40:57;;;;;;;;;;;;;;;18.09;45.21;101357.28;2101387;28;20639;-66
2022/01/14 05:41:59;;;;;;;;;;;;;;;18.08;45.33;101358.25;2098687;28;19943;-66
2022/01/14 05:43:00;;;;;;;;;;;;;;;18.07;45.44;101365.56;2102466;28;19964;-65